Flight OLY603

  • Submitted By: Stavros Sarikas
  • Departure Airport: Ioannis Kapodistrias International Airport (LGKR)
  • Arrival Airport: Eleftherios Venizelos International Airport (LGAV)
  • Aircraft: A320-200 (SX-OAT)
  • Flight Time: 01.06
  • Date Submitted: 24/02/2018
  • Route: MALED UA14 ARA UB34 NEMES
  • Status: Accepted
Flight Details
Gross Revenue:
(116 load / € 60.00 per unit
€ 6, 960.00
Fuel Cost:
(2754 fuel used @ 0.19 / unit)
€ 523.26

Additional Log Information:

View Log

Aircraft Used in flight is Airbus A320 British Airways G-EUUU
12:27 Boarding
12:27 Navigation Lights ON at 20 Feet
12:27 Beacon Lights ON at 20 Feet
12:27 Brakes are On
12:28 Engine 2 Started
12:29 Engine 1 Started
12:31 Brakes are Released
12:31 Pushing back
12:31 Flaps 3 Selected at 20ft and 0kts
12:32 Taxi Lights ON at 20 Feet
12:33 Landing Lights ON at 20 AGL
12:33 Strobe Lights ON at 20 Feet
12:34 You Took off @ 136 Knots and Flaps at Position 3 With a heading of 169 Degrees
Departure Weather LGKR 241020Z 15014KT 7000 -RA SCT008 SCT015 BKN030 10/08 Q1006 NOSIG
Departure Coordinates 39.5976210553689/ 19.9132246627941
Takeoff Weight=57699KG Fuel Weight=2857KG
12:34 Landing Gear Up @ 147 Knots and 90 Feet
12:34 Taxi Lights OFF at 90 Feet
12:35 Flaps 2 Selected at 1790ft and 142kts
12:36 Flaps 0 Selected at 2050ft and 181kts
12:38 Above FL100 you need to switch of the landing lights
12:38 Landing Lights OFF at 10380 AGL
12:42 TOC Reached
13:10 You exceeded maximum bank angle
13:15 Landing Lights ON at 9810 AGL
13:16 Below 10000 feet you are not allowed to go over 250 knots
13:22 Flaps 1 Selected at 2250ft and 229kts
13:22 Flaps 3 Selected at 2220ft and 193kts
13:22 Landing Gear Down @ 183 Knots and 2230 Feet
13:23 Flaps 4 Selected at 2220ft and 158kts
13:23 Taxi Lights ON at 2200 Feet
13:23 Flaps 5 Selected at 2210ft and 146kts
13:28 You Landed @ 124 Knots with -50 Vertical Speed With a heading of 216 and with 1.1824 G Force
Arrival Weather: LGAV 241050Z 24010KT 9999 SCT030 15/06 Q1005 NOSIG
Arrival Coordinates 37.94204403156/ 23.9384066856601
Landing Weight=55233KG Fuel Weight=389KG
13:28 Taxiing to gate
13:29 Paused
13:29 Unpaused
13:30 Paused
Pirep logged with OA Virtual Tracking 1.0.2.6

Route Map